sensor_id;sensor_type;location;lat;lon;timestamp;pressure;altitude;pressure_sealevel;temperature;humidity
48790;BME280;41718;51.980;5.734;2023-05-03T00:03:27;102790.13;;;2.52;100.00
48790;BME280;41718;51.980;5.734;2023-05-03T00:08:28;102794.34;;;2.52;100.00
48790;BME280;41718;51.980;5.734;2023-05-03T00:13:30;102802.84;;;2.30;100.00
48790;BME280;41718;51.980;5.734;2023-05-03T00:18:31;102798.94;;;2.24;100.00
48790;BME280;41718;51.980;5.734;2023-05-03T00:23:33;102796.53;;;2.15;100.00
48790;BME280;41718;51.980;5.734;2023-05-03T00:28:34;102796.56;;;2.37;100.00
48790;BME280;41718;51.980;5.734;2023-05-03T00:33:36;102798.84;;;2.12;100.00
48790;BME280;41718;51.980;5.734;2023-05-03T00:38:39;102792.88;;;2.01;100.00
48790;BME280;41718;51.980;5.734;2023-05-03T00:43:41;102797.84;;;2.00;100.00
48790;BME280;41718;51.980;5.734;2023-05-03T00:48:44;102786.38;;;1.95;100.00
48790;BME280;41718;51.980;5.734;2023-05-03T00:53:47;102792.00;;;1.80;100.00
48790;BME280;41718;51.980;5.734;2023-05-03T00:58:50;102792.28;;;1.73;100.00
48790;BME280;41718;51.980;5.734;2023-05-03T01:03:51;102802.22;;;1.80;100.00
48790;BME280;41718;51.980;5.734;2023-05-03T01:14:53;102801.38;;;1.59;100.00
48790;BME280;41718;51.980;5.734;2023-05-03T01:19:58;102805.03;;;1.63;100.00
48790;BME280;41718;51.980;5.734;2023-05-03T01:30:11;102814.13;;;1.49;100.00
48790;BME280;41718;51.980;5.734;2023-05-03T01:40:27;102809.53;;;1.55;100.00
48790;BME280;41718;51.980;5.734;2023-05-03T01:45:29;102809.63;;;1.47;100.00
48790;BME280;41718;51.980;5.734;2023-05-03T01:50:31;102811.28;;;1.36;100.00
48790;BME280;41718;51.980;5.734;2023-05-03T01:55:32;102803.41;;;1.33;100.00
48790;BME280;41718;51.980;5.734;2023-05-03T02:00:34;102806.81;;;1.13;100.00
48790;BME280;41718;51.980;5.734;2023-05-03T02:05:35;102804.41;;;1.15;100.00
48790;BME280;41718;51.980;5.734;2023-05-03T02:10:37;102809.72;;;0.97;100.00
48790;BME280;41718;51.980;5.734;2023-05-03T02:15:38;102800.28;;;0.96;100.00
48790;BME280;41718;51.980;5.734;2023-05-03T02:20:43;102808.81;;;0.87;100.00
48790;BME280;41718;51.980;5.734;2023-05-03T02:25:45;102805.94;;;0.73;100.00
48790;BME280;41718;51.980;5.734;2023-05-03T02:30:46;102804.22;;;0.83;100.00
48790;BME280;41718;51.980;5.734;2023-05-03T02:35:48;102790.88;;;0.85;100.00
48790;BME280;41718;51.980;5.734;2023-05-03T02:40:49;102787.66;;;0.88;100.00
48790;BME280;41718;51.980;5.734;2023-05-03T02:45:51;102788.69;;;0.79;100.00
48790;BME280;41718;51.980;5.734;2023-05-03T02:50:52;102783.31;;;0.76;100.00
48790;BME280;41718;51.980;5.734;2023-05-03T02:55:55;102776.66;;;0.58;100.00
48790;BME280;41718;51.980;5.734;2023-05-03T03:00:56;102765.94;;;0.62;100.00
48790;BME280;41718;51.980;5.734;2023-05-03T03:05:58;102769.22;;;0.51;100.00
48790;BME280;41718;51.980;5.734;2023-05-03T03:10:59;102764.03;;;0.60;100.00
48790;BME280;41718;51.980;5.734;2023-05-03T03:16:01;102754.88;;;0.51;100.00
48790;BME280;41718;51.980;5.734;2023-05-03T03:21:02;102768.19;;;0.49;100.00
48790;BME280;41718;51.980;5.734;2023-05-03T03:26:04;102770.19;;;0.33;100.00
48790;BME280;41718;51.980;5.734;2023-05-03T03:31:06;102780.47;;;0.05;100.00
48790;BME280;41718;51.980;5.734;2023-05-03T03:36:08;102785.00;;;0.18;100.00
48790;BME280;41718;51.980;5.734;2023-05-03T03:41:10;102782.28;;;0.06;100.00
48790;BME280;41718;51.980;5.734;2023-05-03T03:46:12;102780.97;;;0.01;100.00
48790;BME280;41718;51.980;5.734;2023-05-03T03:51:13;102775.47;;;-0.04;100.00
48790;BME280;41718;51.980;5.734;2023-05-03T03:56:14;102777.94;;;0.05;100.00
48790;BME280;41718;51.980;5.734;2023-05-03T04:01:16;102788.06;;;-0.05;100.00
48790;BME280;41718;51.980;5.734;2023-05-03T04:06:17;102784.28;;;0.00;100.00
48790;BME280;41718;51.980;5.734;2023-05-03T04:11:19;102785.72;;;0.07;100.00
48790;BME280;41718;51.980;5.734;2023-05-03T04:16:21;102802.69;;;-0.03;100.00
48790;BME280;41718;51.980;5.734;2023-05-03T04:21:23;102805.53;;;0.01;100.00
48790;BME280;41718;51.980;5.734;2023-05-03T04:26:24;102807.44;;;0.03;100.00
48790;BME280;41718;51.980;5.734;2023-05-03T04:31:32;102810.28;;;0.06;100.00
48790;BME280;41718;51.980;5.734;2023-05-03T04:36:33;102816.44;;;0.18;100.00
48790;BME280;41718;51.980;5.734;2023-05-03T04:41:35;102818.88;;;0.27;100.00
48790;BME280;41718;51.980;5.734;2023-05-03T04:46:37;102836.16;;;0.40;100.00
48790;BME280;41718;51.980;5.734;2023-05-03T04:51:39;102850.69;;;0.51;100.00
48790;BME280;41718;51.980;5.734;2023-05-03T04:56:41;102853.97;;;0.69;100.00
48790;BME280;41718;51.980;5.734;2023-05-03T05:01:42;102854.63;;;0.76;100.00
48790;BME280;41718;51.980;5.734;2023-05-03T05:06:44;102859.28;;;1.01;100.00
48790;BME280;41718;51.980;5.734;2023-05-03T05:11:46;102857.56;;;1.20;100.00
48790;BME280;41718;51.980;5.734;2023-05-03T05:16:47;102867.78;;;1.51;100.00
48790;BME280;41718;51.980;5.734;2023-05-03T05:21:50;102859.63;;;1.75;100.00
48790;BME280;41718;51.980;5.734;2023-05-03T05:26:52;102861.66;;;2.00;100.00
48790;BME280;41718;51.980;5.734;2023-05-03T05:31:53;102869.03;;;2.27;100.00
48790;BME280;41718;51.980;5.734;2023-05-03T05:36:55;102872.38;;;2.48;100.00
48790;BME280;41718;51.980;5.734;2023-05-03T05:41:56;102868.25;;;2.92;100.00
48790;BME280;41718;51.980;5.734;2023-05-03T05:46:58;102869.50;;;2.98;100.00
48790;BME280;41718;51.980;5.734;2023-05-03T05:51:59;102867.59;;;3.17;100.00
48790;BME280;41718;51.980;5.734;2023-05-03T05:57:01;102865.03;;;3.72;100.00
48790;BME280;41718;51.980;5.734;2023-05-03T06:02:04;102860.31;;;4.12;100.00
48790;BME280;41718;51.980;5.734;2023-05-03T06:07:06;102853.16;;;4.78;100.00
48790;BME280;41718;51.980;5.734;2023-05-03T06:12:07;102849.34;;;4.85;100.00
48790;BME280;41718;51.980;5.734;2023-05-03T06:17:09;102837.34;;;5.34;100.00
48790;BME280;41718;51.980;5.734;2023-05-03T06:22:10;102838.44;;;5.63;100.00
48790;BME280;41718;51.980;5.734;2023-05-03T06:27:12;102836.78;;;6.41;100.00
48790;BME280;41718;51.980;5.734;2023-05-03T06:32:13;102834.25;;;6.97;100.00
48790;BME280;41718;51.980;5.734;2023-05-03T06:37:15;102822.53;;;6.87;100.00
48790;BME280;41718;51.980;5.734;2023-05-03T06:42:17;102801.50;;;7.95;100.00
48790;BME280;41718;51.980;5.734;2023-05-03T06:47:19;102785.06;;;7.78;100.00
48790;BME280;41718;51.980;5.734;2023-05-03T06:52:21;102759.25;;;8.39;100.00
48790;BME280;41718;51.980;5.734;2023-05-03T06:57:23;102744.78;;;8.41;100.00
48790;BME280;41718;51.980;5.734;2023-05-03T07:02:28;102734.47;;;8.73;100.00
48790;BME280;41718;51.980;5.734;2023-05-03T07:07:29;102744.78;;;8.41;100.00
48790;BME280;41718;51.980;5.734;2023-05-03T07:12:31;102734.88;;;8.65;100.00
48790;BME280;41718;51.980;5.734;2023-05-03T07:17:33;102741.19;;;8.70;100.00
48790;BME280;41718;51.980;5.734;2023-05-03T07:22:34;102749.47;;;8.64;100.00
48790;BME280;41718;51.980;5.734;2023-05-03T07:27:35;102737.97;;;9.24;100.00
48790;BME280;41718;51.980;5.734;2023-05-03T07:32:37;102737.91;;;9.23;100.00
48790;BME280;41718;51.980;5.734;2023-05-03T07:37:38;102726.56;;;9.19;100.00
48790;BME280;41718;51.980;5.734;2023-05-03T07:42:40;102728.34;;;9.04;100.00
48790;BME280;41718;51.980;5.734;2023-05-03T07:47:42;102712.28;;;9.97;100.00
48790;BME280;41718;51.980;5.734;2023-05-03T07:52:43;102712.22;;;9.78;100.00
48790;BME280;41718;51.980;5.734;2023-05-03T07:57:45;102706.19;;;9.77;100.00
48790;BME280;41718;51.980;5.734;2023-05-03T08:02:46;102708.47;;;9.71;100.00
48790;BME280;41718;51.980;5.734;2023-05-03T08:07:48;102687.16;;;10.13;100.00
48790;BME280;41718;51.980;5.734;2023-05-03T08:12:50;102689.00;;;10.52;100.00
48790;BME280;41718;51.980;5.734;2023-05-03T08:17:51;102715.38;;;10.44;100.00
48790;BME280;41718;51.980;5.734;2023-05-03T08:22:53;102721.06;;;10.37;100.00
48790;BME280;41718;51.980;5.734;2023-05-03T08:27:57;102710.66;;;10.35;100.00
48790;BME280;41718;51.980;5.734;2023-05-03T08:32:58;102715.50;;;10.66;100.00
48790;BME280;41718;51.980;5.734;2023-05-03T08:38:00;102709.31;;;10.63;100.00
48790;BME280;41718;51.980;5.734;2023-05-03T08:43:07;102690.09;;;11.17;100.00
48790;BME280;41718;51.980;5.734;2023-05-03T08:48:09;102681.53;;;11.18;100.00
48790;BME280;41718;51.980;5.734;2023-05-03T08:53:11;102680.56;;;11.37;100.00
48790;BME280;41718;51.980;5.734;2023-05-03T08:58:13;102667.34;;;11.10;100.00
48790;BME280;41718;51.980;5.734;2023-05-03T09:03:14;102678.06;;;11.18;100.00
48790;BME280;41718;51.980;5.734;2023-05-03T09:08:17;102685.91;;;11.00;100.00
48790;BME280;41718;51.980;5.734;2023-05-03T09:13:29;102695.16;;;11.98;100.00
48790;BME280;41718;51.980;5.734;2023-05-03T09:18:32;102713.75;;;11.87;100.00
48790;BME280;41718;51.980;5.734;2023-05-03T09:23:33;102695.19;;;11.78;100.00
48790;BME280;41718;51.980;5.734;2023-05-03T09:28:41;102695.03;;;12.17;100.00
48790;BME280;41718;51.980;5.734;2023-05-03T09:33:43;102698.66;;;12.92;100.00
48790;BME280;41718;51.980;5.734;2023-05-03T09:38:45;102697.13;;;12.73;100.00
48790;BME280;41718;51.980;5.734;2023-05-03T09:43:48;102706.28;;;12.64;100.00
48790;BME280;41718;51.980;5.734;2023-05-03T09:48:51;102704.47;;;12.37;100.00
48790;BME280;41718;51.980;5.734;2023-05-03T09:53:55;102703.47;;;12.82;100.00
48790;BME280;41718;51.980;5.734;2023-05-03T09:58:57;102712.38;;;13.38;100.00
48790;BME280;41718;51.980;5.734;2023-05-03T10:04:00;102695.41;;;13.49;100.00
48790;BME280;41718;51.980;5.734;2023-05-03T10:09:04;102707.03;;;13.09;100.00
48790;BME280;41718;51.980;5.734;2023-05-03T10:14:06;102693.59;;;13.46;100.00
48790;BME280;41718;51.980;5.734;2023-05-03T10:24:15;102693.31;;;14.20;100.00
48790;BME280;41718;51.980;5.734;2023-05-03T10:34:46;102675.06;;;14.48;100.00
48790;BME280;41718;51.980;5.734;2023-05-03T10:39:51;102676.28;;;14.93;98.24
48790;BME280;41718;51.980;5.734;2023-05-03T10:44:53;102675.16;;;14.23;99.38
48790;BME280;41718;51.980;5.734;2023-05-03T10:55:14;102661.22;;;14.81;100.00
48790;BME280;41718;51.980;5.734;2023-05-03T11:00:22;102657.78;;;14.83;99.07
48790;BME280;41718;51.980;5.734;2023-05-03T11:05:25;102639.44;;;15.14;93.58
48790;BME280;41718;51.980;5.734;2023-05-03T11:10:28;102638.19;;;15.67;94.71
48790;BME280;41718;51.980;5.734;2023-05-03T11:15:30;102635.47;;;16.02;94.87
48790;BME280;41718;51.980;5.734;2023-05-03T11:20:31;102632.03;;;15.30;95.98
48790;BME280;41718;51.980;5.734;2023-05-03T11:25:33;102631.47;;;14.74;98.92
48790;BME280;41718;51.980;5.734;2023-05-03T11:30:35;102614.84;;;15.75;98.39
48790;BME280;41718;51.980;5.734;2023-05-03T11:35:38;102612.94;;;15.66;93.96
48790;BME280;41718;51.980;5.734;2023-05-03T11:40:39;102610.56;;;15.04;96.51
48790;BME280;41718;51.980;5.734;2023-05-03T11:45:43;102598.56;;;15.11;93.72
48790;BME280;41718;51.980;5.734;2023-05-03T11:50:48;102588.59;;;16.09;92.06
48790;BME280;41718;51.980;5.734;2023-05-03T11:55:56;102594.31;;;15.52;92.07
48790;BME280;41718;51.980;5.734;2023-05-03T12:00:58;102592.88;;;15.65;92.13
48790;BME280;41718;51.980;5.734;2023-05-03T12:05:59;102589.00;;;15.11;94.03
48790;BME280;41718;51.980;5.734;2023-05-03T12:11:05;102585.72;;;15.56;92.53
48790;BME280;41718;51.980;5.734;2023-05-03T12:16:08;102573.19;;;15.42;91.03
48790;BME280;41718;51.980;5.734;2023-05-03T12:21:15;102560.91;;;15.74;90.12
48790;BME280;41718;51.980;5.734;2023-05-03T12:26:20;102554.09;;;16.24;89.48
48790;BME280;41718;51.980;5.734;2023-05-03T12:31:22;102558.19;;;16.11;90.66
48790;BME280;41718;51.980;5.734;2023-05-03T12:36:24;102549.59;;;15.73;90.44
48790;BME280;41718;51.980;5.734;2023-05-03T12:41:27;102539.31;;;16.26;88.37
48790;BME280;41718;51.980;5.734;2023-05-03T12:46:51;102529.06;;;16.35;87.52
48790;BME280;41718;51.980;5.734;2023-05-03T12:51:54;102532.09;;;16.60;87.46
48790;BME280;41718;51.980;5.734;2023-05-03T12:57:20;102520.25;;;15.86;87.97
48790;BME280;41718;51.980;5.734;2023-05-03T13:02:24;102508.41;;;16.02;87.47
48790;BME280;41718;51.980;5.734;2023-05-03T13:07:28;102495.63;;;16.67;87.59
48790;BME280;41718;51.980;5.734;2023-05-03T13:12:36;102498.84;;;16.04;86.99
48790;BME280;41718;51.980;5.734;2023-05-03T13:17:38;102480.22;;;16.31;87.25
48790;BME280;41718;51.980;5.734;2023-05-03T13:22:39;102482.06;;;16.37;87.66
48790;BME280;41718;51.980;5.734;2023-05-03T13:27:41;102476.00;;;15.91;84.17
48790;BME280;41718;51.980;5.734;2023-05-03T13:32:42;102458.13;;;16.64;82.86
48790;BME280;41718;51.980;5.734;2023-05-03T13:37:44;102456.50;;;16.21;81.87
48790;BME280;41718;51.980;5.734;2023-05-03T13:42:46;102457.13;;;16.06;83.77
48790;BME280;41718;51.980;5.734;2023-05-03T13:47:48;102451.44;;;15.81;83.82
48790;BME280;41718;51.980;5.734;2023-05-03T13:52:53;102438.25;;;16.22;85.17
48790;BME280;41718;51.980;5.734;2023-05-03T13:57:54;102424.38;;;15.76;82.87
48790;BME280;41718;51.980;5.734;2023-05-03T14:02:56;102426.13;;;16.26;84.28
48790;BME280;41718;51.980;5.734;2023-05-03T14:07:58;102421.72;;;15.73;84.97
48790;BME280;41718;51.980;5.734;2023-05-03T14:12:59;102424.84;;;15.58;86.02
48790;BME280;41718;51.980;5.734;2023-05-03T14:18:01;102417.22;;;15.66;85.28
48790;BME280;41718;51.980;5.734;2023-05-03T14:23:06;102411.06;;;15.62;85.53
48790;BME280;41718;51.980;5.734;2023-05-03T14:28:07;102404.03;;;15.60;86.35
48790;BME280;41718;51.980;5.734;2023-05-03T14:33:09;102402.69;;;15.80;86.97
48790;BME280;41718;51.980;5.734;2023-05-03T14:38:11;102402.13;;;15.51;86.64
48790;BME280;41718;51.980;5.734;2023-05-03T14:43:14;102392.66;;;16.02;86.94
48790;BME280;41718;51.980;5.734;2023-05-03T14:48:16;102384.69;;;15.49;85.99
48790;BME280;41718;51.980;5.734;2023-05-03T14:53:17;102378.41;;;15.39;86.99
48790;BME280;41718;51.980;5.734;2023-05-03T14:58:19;102381.44;;;15.60;87.28
48790;BME280;41718;51.980;5.734;2023-05-03T15:03:20;102376.34;;;15.23;88.14
48790;BME280;41718;51.980;5.734;2023-05-03T15:08:22;102365.56;;;15.50;87.81
48790;BME280;41718;51.980;5.734;2023-05-03T15:13:23;102359.91;;;15.27;87.90
48790;BME280;41718;51.980;5.734;2023-05-03T15:18:25;102352.13;;;15.30;87.61
48790;BME280;41718;51.980;5.734;2023-05-03T15:23:27;102351.22;;;15.28;86.31
48790;BME280;41718;51.980;5.734;2023-05-03T15:28:29;102349.25;;;15.16;87.76
48790;BME280;41718;51.980;5.734;2023-05-03T15:33:38;102344.34;;;15.31;87.42
48790;BME280;41718;51.980;5.734;2023-05-03T15:38:41;102350.56;;;14.96;84.96
48790;BME280;41718;51.980;5.734;2023-05-03T15:43:44;102351.84;;;15.15;85.52
48790;BME280;41718;51.980;5.734;2023-05-03T15:48:46;102349.91;;;15.06;86.75
48790;BME280;41718;51.980;5.734;2023-05-03T15:53:48;102351.53;;;15.01;87.24
48790;BME280;41718;51.980;5.734;2023-05-03T15:58:49;102344.19;;;15.24;88.35
48790;BME280;41718;51.980;5.734;2023-05-03T16:03:51;102350.78;;;15.05;87.63
48790;BME280;41718;51.980;5.734;2023-05-03T16:08:52;102342.84;;;14.99;86.29
48790;BME280;41718;51.980;5.734;2023-05-03T16:13:54;102339.34;;;14.98;87.13
48790;BME280;41718;51.980;5.734;2023-05-03T16:18:55;102328.97;;;15.03;86.82
48790;BME280;41718;51.980;5.734;2023-05-03T16:23:57;102327.13;;;14.97;87.76
48790;BME280;41718;51.980;5.734;2023-05-03T16:28:59;102323.66;;;14.97;87.43
48790;BME280;41718;51.980;5.734;2023-05-03T16:34:01;102332.66;;;15.11;88.01
48790;BME280;41718;51.980;5.734;2023-05-03T16:39:02;102317.66;;;15.01;88.52
48790;BME280;41718;51.980;5.734;2023-05-03T16:44:05;102321.38;;;15.12;88.83
48790;BME280;41718;51.980;5.734;2023-05-03T16:49:08;102329.50;;;14.85;88.60
48790;BME280;41718;51.980;5.734;2023-05-03T16:54:09;102322.25;;;14.70;88.44
48790;BME280;41718;51.980;5.734;2023-05-03T16:59:12;102326.13;;;14.89;90.65
48790;BME280;41718;51.980;5.734;2023-05-03T17:04:13;102318.22;;;15.28;89.63
48790;BME280;41718;51.980;5.734;2023-05-03T17:09:15;102308.19;;;15.50;87.24
48790;BME280;41718;51.980;5.734;2023-05-03T17:14:17;102292.81;;;15.65;87.23
48790;BME280;41718;51.980;5.734;2023-05-03T17:19:18;102287.25;;;15.47;84.58
48790;BME280;41718;51.980;5.734;2023-05-03T17:24:20;102285.31;;;15.35;84.54
48790;BME280;41718;51.980;5.734;2023-05-03T17:29:21;102280.03;;;15.32;84.72
48790;BME280;41718;51.980;5.734;2023-05-03T17:34:23;102284.09;;;15.16;86.32
48790;BME280;41718;51.980;5.734;2023-05-03T17:39:26;102286.38;;;14.99;86.67
48790;BME280;41718;51.980;5.734;2023-05-03T17:44:28;102292.09;;;14.83;86.60
48790;BME280;41718;51.980;5.734;2023-05-03T17:49:33;102286.31;;;14.55;88.49
48790;BME280;41718;51.980;5.734;2023-05-03T17:54:34;102288.88;;;14.52;90.62
48790;BME280;41718;51.980;5.734;2023-05-03T17:59:35;102289.34;;;14.36;91.81
48790;BME280;41718;51.980;5.734;2023-05-03T18:04:37;102289.22;;;14.31;92.78
48790;BME280;41718;51.980;5.734;2023-05-03T18:09:39;102296.63;;;14.15;93.77
48790;BME280;41718;51.980;5.734;2023-05-03T18:14:40;102297.41;;;14.11;94.89
48790;BME280;41718;51.980;5.734;2023-05-03T18:19:42;102296.16;;;13.95;96.41
48790;BME280;41718;51.980;5.734;2023-05-03T18:24:45;102288.72;;;13.74;96.79
48790;BME280;41718;51.980;5.734;2023-05-03T18:29:46;102296.66;;;13.80;98.18
48790;BME280;41718;51.980;5.734;2023-05-03T18:34:48;102303.03;;;13.58;100.00
48790;BME280;41718;51.980;5.734;2023-05-03T18:39:49;102302.72;;;13.46;100.00
48790;BME280;41718;51.980;5.734;2023-05-03T18:44:50;102302.47;;;13.37;100.00
48790;BME280;41718;51.980;5.734;2023-05-03T18:49:52;102306.94;;;13.11;100.00
48790;BME280;41718;51.980;5.734;2023-05-03T18:54:54;102313.56;;;13.01;100.00
48790;BME280;41718;51.980;5.734;2023-05-03T18:59:55;102319.16;;;12.56;100.00
48790;BME280;41718;51.980;5.734;2023-05-03T19:05:08;102316.53;;;12.55;100.00
48790;BME280;41718;51.980;5.734;2023-05-03T19:10:14;102327.44;;;12.43;100.00
48790;BME280;41718;51.980;5.734;2023-05-03T19:15:16;102316.16;;;12.15;100.00
48790;BME280;41718;51.980;5.734;2023-05-03T19:20:17;102328.31;;;12.16;100.00
48790;BME280;41718;51.980;5.734;2023-05-03T19:25:19;102339.00;;;12.00;100.00
48790;BME280;41718;51.980;5.734;2023-05-03T19:30:20;102341.56;;;11.99;100.00
48790;BME280;41718;51.980;5.734;2023-05-03T19:35:22;102344.94;;;11.72;100.00
48790;BME280;41718;51.980;5.734;2023-05-03T19:40:23;102344.34;;;11.55;100.00
48790;BME280;41718;51.980;5.734;2023-05-03T19:45:25;102348.41;;;11.47;100.00
48790;BME280;41718;51.980;5.734;2023-05-03T19:50:27;102351.06;;;11.25;100.00
48790;BME280;41718;51.980;5.734;2023-05-03T19:55:28;102346.53;;;11.19;100.00
48790;BME280;41718;51.980;5.734;2023-05-03T20:00:29;102349.31;;;11.01;100.00
48790;BME280;41718;51.980;5.734;2023-05-03T20:05:31;102341.19;;;10.92;100.00
48790;BME280;41718;51.980;5.734;2023-05-03T20:10:32;102341.25;;;10.71;100.00
48790;BME280;41718;51.980;5.734;2023-05-03T20:15:36;102331.91;;;10.52;100.00
48790;BME280;41718;51.980;5.734;2023-05-03T20:20:37;102331.53;;;10.43;100.00
48790;BME280;41718;51.980;5.734;2023-05-03T20:25:39;102328.28;;;10.26;100.00
48790;BME280;41718;51.980;5.734;2023-05-03T20:30:41;102318.72;;;10.24;100.00
48790;BME280;41718;51.980;5.734;2023-05-03T20:35:42;102318.88;;;10.07;100.00
48790;BME280;41718;51.980;5.734;2023-05-03T20:40:44;102321.09;;;9.98;100.00
48790;BME280;41718;51.980;5.734;2023-05-03T20:45:45;102317.81;;;9.81;100.00
48790;BME280;41718;51.980;5.734;2023-05-03T20:50:47;102316.34;;;9.67;100.00
48790;BME280;41718;51.980;5.734;2023-05-03T20:55:54;102311.41;;;9.52;100.00
48790;BME280;41718;51.980;5.734;2023-05-03T21:00:56;102312.25;;;9.32;100.00
48790;BME280;41718;51.980;5.734;2023-05-03T21:05:58;102308.91;;;9.35;100.00
48790;BME280;41718;51.980;5.734;2023-05-03T21:11:00;102304.72;;;9.17;100.00
48790;BME280;41718;51.980;5.734;2023-05-03T21:16:01;102299.53;;;9.17;100.00
48790;BME280;41718;51.980;5.734;2023-05-03T21:21:03;102296.38;;;9.03;100.00
48790;BME280;41718;51.980;5.734;2023-05-03T21:26:05;102288.97;;;8.92;100.00
48790;BME280;41718;51.980;5.734;2023-05-03T21:31:06;102286.91;;;8.85;100.00
48790;BME280;41718;51.980;5.734;2023-05-03T21:36:08;102278.22;;;8.83;100.00
48790;BME280;41718;51.980;5.734;2023-05-03T21:41:09;102275.28;;;8.75;100.00
48790;BME280;41718;51.980;5.734;2023-05-03T21:46:11;102278.88;;;8.59;100.00
48790;BME280;41718;51.980;5.734;2023-05-03T21:51:19;102266.88;;;8.42;100.00
48790;BME280;41718;51.980;5.734;2023-05-03T21:56:25;102257.66;;;8.29;100.00
48790;BME280;41718;51.980;5.734;2023-05-03T22:01:27;102249.78;;;8.26;100.00
48790;BME280;41718;51.980;5.734;2023-05-03T22:06:28;102255.75;;;8.25;100.00
48790;BME280;41718;51.980;5.734;2023-05-03T22:11:31;102239.66;;;8.11;100.00
48790;BME280;41718;51.980;5.734;2023-05-03T22:16:33;102243.69;;;8.06;100.00
48790;BME280;41718;51.980;5.734;2023-05-03T22:21:35;102242.81;;;8.06;100.00
48790;BME280;41718;51.980;5.734;2023-05-03T22:26:36;102232.28;;;8.01;100.00
48790;BME280;41718;51.980;5.734;2023-05-03T22:31:38;102224.84;;;7.89;100.00
48790;BME280;41718;51.980;5.734;2023-05-03T22:36:40;102230.94;;;7.91;100.00
48790;BME280;41718;51.980;5.734;2023-05-03T22:41:42;102225.56;;;7.87;100.00
48790;BME280;41718;51.980;5.734;2023-05-03T22:46:43;102216.25;;;7.89;100.00
48790;BME280;41718;51.980;5.734;2023-05-03T22:51:44;102217.78;;;7.85;100.00
48790;BME280;41718;51.980;5.734;2023-05-03T22:56:46;102215.28;;;7.87;100.00
48790;BME280;41718;51.980;5.734;2023-05-03T23:01:48;102217.84;;;7.87;100.00
48790;BME280;41718;51.980;5.734;2023-05-03T23:06:52;102213.50;;;7.86;100.00
48790;BME280;41718;51.980;5.734;2023-05-03T23:11:53;102214.84;;;7.78;100.00
48790;BME280;41718;51.980;5.734;2023-05-03T23:16:56;102216.44;;;7.76;100.00
48790;BME280;41718;51.980;5.734;2023-05-03T23:21:58;102211.97;;;7.72;100.00
48790;BME280;41718;51.980;5.734;2023-05-03T23:26:59;102202.25;;;7.66;100.00
48790;BME280;41718;51.980;5.734;2023-05-03T23:32:02;102211.34;;;7.59;100.00
48790;BME280;41718;51.980;5.734;2023-05-03T23:37:04;102207.00;;;7.58;100.00
48790;BME280;41718;51.980;5.734;2023-05-03T23:42:05;102194.13;;;7.58;100.00
48790;BME280;41718;51.980;5.734;2023-05-03T23:47:07;102181.03;;;7.54;100.00
48790;BME280;41718;51.980;5.734;2023-05-03T23:52:08;102182.72;;;7.53;100.00
48790;BME280;41718;51.980;5.734;2023-05-03T23:57:10;102179.91;;;7.49;100.00
